sensor_id;sensor_type;location;lat;lon;timestamp;P1;durP1;ratioP1;P2;durP2;ratioP2
11092;SDS011;5600;50.864;6.102;2023-02-01T00:01:17;57.63;;;5.93;;
11092;SDS011;5600;50.864;6.102;2023-02-01T00:04:18;67.23;;;6.70;;
11092;SDS011;5600;50.864;6.102;2023-02-01T00:07:19;59.93;;;6.53;;
11092;SDS011;5600;50.864;6.102;2023-02-01T00:10:20;75.03;;;7.63;;
11092;SDS011;5600;50.864;6.102;2023-02-01T00:13:21;59.47;;;7.23;;
11092;SDS011;5600;50.864;6.102;2023-02-01T00:16:23;60.83;;;8.80;;
11092;SDS011;5600;50.864;6.102;2023-02-01T00:19:25;64.37;;;9.40;;
11092;SDS011;5600;50.864;6.102;2023-02-01T00:22:26;72.23;;;9.87;;
11092;SDS011;5600;50.864;6.102;2023-02-01T00:25:26;71.43;;;9.97;;
11092;SDS011;5600;50.864;6.102;2023-02-01T00:28:27;58.53;;;10.17;;
11092;SDS011;5600;50.864;6.102;2023-02-01T00:31:28;69.43;;;10.67;;
11092;SDS011;5600;50.864;6.102;2023-02-01T00:34:29;64.10;;;10.67;;
11092;SDS011;5600;50.864;6.102;2023-02-01T00:37:29;57.00;;;9.80;;
11092;SDS011;5600;50.864;6.102;2023-02-01T00:40:30;78.93;;;11.30;;
11092;SDS011;5600;50.864;6.102;2023-02-01T00:43:31;50.90;;;10.13;;
11092;SDS011;5600;50.864;6.102;2023-02-01T00:46:33;54.57;;;10.60;;
11092;SDS011;5600;50.864;6.102;2023-02-01T00:49:35;51.93;;;10.43;;
11092;SDS011;5600;50.864;6.102;2023-02-01T00:52:36;65.60;;;11.00;;
11092;SDS011;5600;50.864;6.102;2023-02-01T00:55:37;69.27;;;10.43;;
11092;SDS011;5600;50.864;6.102;2023-02-01T00:58:38;52.10;;;10.13;;
11092;SDS011;5600;50.864;6.102;2023-02-01T01:01:39;27.77;;;9.00;;
11092;SDS011;5600;50.864;6.102;2023-02-01T01:04:40;50.63;;;10.23;;
11092;SDS011;5600;50.864;6.102;2023-02-01T01:07:41;40.70;;;9.10;;
11092;SDS011;5600;50.864;6.102;2023-02-01T01:10:42;58.10;;;10.40;;
11092;SDS011;5600;50.864;6.102;2023-02-01T01:13:45;54.00;;;10.77;;
11092;SDS011;5600;50.864;6.102;2023-02-01T01:16:49;70.63;;;9.97;;
11092;SDS011;5600;50.864;6.102;2023-02-01T01:19:50;86.97;;;10.83;;
11092;SDS011;5600;50.864;6.102;2023-02-01T01:22:51;64.13;;;10.17;;
11092;SDS011;5600;50.864;6.102;2023-02-01T01:25:52;66.37;;;10.40;;
11092;SDS011;5600;50.864;6.102;2023-02-01T01:28:57;69.00;;;11.20;;
11092;SDS011;5600;50.864;6.102;2023-02-01T01:31:58;75.93;;;11.00;;
11092;SDS011;5600;50.864;6.102;2023-02-01T01:34:59;45.20;;;8.80;;
11092;SDS011;5600;50.864;6.102;2023-02-01T01:38:01;69.10;;;9.70;;
11092;SDS011;5600;50.864;6.102;2023-02-01T01:41:02;65.60;;;9.97;;
11092;SDS011;5600;50.864;6.102;2023-02-01T01:44:04;55.03;;;9.10;;
11092;SDS011;5600;50.864;6.102;2023-02-01T01:47:06;75.40;;;10.07;;
11092;SDS011;5600;50.864;6.102;2023-02-01T01:50:10;61.40;;;9.67;;
11092;SDS011;5600;50.864;6.102;2023-02-01T01:53:18;52.53;;;8.90;;
11092;SDS011;5600;50.864;6.102;2023-02-01T01:56:24;51.73;;;8.20;;
11092;SDS011;5600;50.864;6.102;2023-02-01T01:59:26;72.70;;;9.87;;
11092;SDS011;5600;50.864;6.102;2023-02-01T02:02:29;67.83;;;9.50;;
11092;SDS011;5600;50.864;6.102;2023-02-01T02:05:31;64.33;;;9.63;;
11092;SDS011;5600;50.864;6.102;2023-02-01T02:08:31;66.03;;;9.40;;
11092;SDS011;5600;50.864;6.102;2023-02-01T02:11:32;59.83;;;8.83;;
11092;SDS011;5600;50.864;6.102;2023-02-01T02:14:33;63.47;;;9.17;;
11092;SDS011;5600;50.864;6.102;2023-02-01T02:17:44;76.00;;;9.90;;
11092;SDS011;5600;50.864;6.102;2023-02-01T02:21:12;60.43;;;9.67;;
11092;SDS011;5600;50.864;6.102;2023-02-01T02:33:52;66.73;;;9.37;;
11092;SDS011;5600;50.864;6.102;2023-02-01T02:43:32;53.07;;;8.27;;
11092;SDS011;5600;50.864;6.102;2023-02-01T02:47:07;48.43;;;7.90;;
11092;SDS011;5600;50.864;6.102;2023-02-01T02:53:52;52.67;;;7.93;;
11092;SDS011;5600;50.864;6.102;2023-02-01T03:00:46;67.73;;;9.23;;
11092;SDS011;5600;50.864;6.102;2023-02-01T03:04:06;71.87;;;9.33;;
11092;SDS011;5600;50.864;6.102;2023-02-01T03:14:09;61.00;;;9.80;;
11092;SDS011;5600;50.864;6.102;2023-02-01T03:17:13;80.20;;;9.70;;
11092;SDS011;5600;50.864;6.102;2023-02-01T03:20:18;67.00;;;10.00;;
11092;SDS011;5600;50.864;6.102;2023-02-01T03:23:23;55.43;;;8.73;;
11092;SDS011;5600;50.864;6.102;2023-02-01T03:26:28;70.23;;;9.03;;
11092;SDS011;5600;50.864;6.102;2023-02-01T03:29:36;53.53;;;8.47;;
11092;SDS011;5600;50.864;6.102;2023-02-01T03:32:45;46.87;;;7.73;;
11092;SDS011;5600;50.864;6.102;2023-02-01T03:39:24;58.83;;;8.30;;
11092;SDS011;5600;50.864;6.102;2023-02-01T03:42:48;65.70;;;7.50;;
11092;SDS011;5600;50.864;6.102;2023-02-01T03:45:54;64.60;;;7.17;;
11092;SDS011;5600;50.864;6.102;2023-02-01T03:49:08;77.60;;;7.67;;
11092;SDS011;5600;50.864;6.102;2023-02-01T03:52:17;77.10;;;7.60;;
11092;SDS011;5600;50.864;6.102;2023-02-01T03:55:22;58.67;;;7.00;;
11092;SDS011;5600;50.864;6.102;2023-02-01T03:58:25;71.77;;;7.47;;
11092;SDS011;5600;50.864;6.102;2023-02-01T04:01:27;52.50;;;6.13;;
11092;SDS011;5600;50.864;6.102;2023-02-01T04:04:29;53.13;;;6.17;;
11092;SDS011;5600;50.864;6.102;2023-02-01T04:07:30;43.17;;;5.57;;
11092;SDS011;5600;50.864;6.102;2023-02-01T04:10:32;64.77;;;6.60;;
11092;SDS011;5600;50.864;6.102;2023-02-01T04:13:32;38.63;;;5.27;;
11092;SDS011;5600;50.864;6.102;2023-02-01T04:16:33;55.67;;;5.90;;
11092;SDS011;5600;50.864;6.102;2023-02-01T04:19:35;61.60;;;6.63;;
11092;SDS011;5600;50.864;6.102;2023-02-01T04:22:36;45.70;;;5.13;;
11092;SDS011;5600;50.864;6.102;2023-02-01T04:25:37;78.83;;;6.83;;
11092;SDS011;5600;50.864;6.102;2023-02-01T04:28:37;49.67;;;5.47;;
11092;SDS011;5600;50.864;6.102;2023-02-01T04:31:38;109.33;;;8.20;;
11092;SDS011;5600;50.864;6.102;2023-02-01T04:34:40;54.93;;;5.23;;
11092;SDS011;5600;50.864;6.102;2023-02-01T04:37:41;52.60;;;5.10;;
11092;SDS011;5600;50.864;6.102;2023-02-01T04:40:42;63.67;;;5.73;;
11092;SDS011;5600;50.864;6.102;2023-02-01T04:43:43;81.67;;;6.80;;
11092;SDS011;5600;50.864;6.102;2023-02-01T04:46:44;54.37;;;5.43;;
11092;SDS011;5600;50.864;6.102;2023-02-01T04:49:46;52.27;;;4.83;;
11092;SDS011;5600;50.864;6.102;2023-02-01T04:52:47;63.23;;;6.00;;
11092;SDS011;5600;50.864;6.102;2023-02-01T04:55:48;59.03;;;5.30;;
11092;SDS011;5600;50.864;6.102;2023-02-01T04:58:50;54.83;;;5.03;;
11092;SDS011;5600;50.864;6.102;2023-02-01T05:01:51;50.87;;;4.70;;
11092;SDS011;5600;50.864;6.102;2023-02-01T05:04:51;58.53;;;5.47;;
11092;SDS011;5600;50.864;6.102;2023-02-01T05:07:54;62.17;;;5.07;;
11092;SDS011;5600;50.864;6.102;2023-02-01T05:10:55;73.83;;;5.93;;
11092;SDS011;5600;50.864;6.102;2023-02-01T05:13:56;59.83;;;5.10;;
11092;SDS011;5600;50.864;6.102;2023-02-01T05:16:57;70.47;;;5.90;;
11092;SDS011;5600;50.864;6.102;2023-02-01T05:19:58;74.03;;;5.87;;
11092;SDS011;5600;50.864;6.102;2023-02-01T05:22:59;66.47;;;5.57;;
11092;SDS011;5600;50.864;6.102;2023-02-01T05:26:00;64.53;;;5.50;;
11092;SDS011;5600;50.864;6.102;2023-02-01T05:29:02;67.03;;;5.80;;
11092;SDS011;5600;50.864;6.102;2023-02-01T05:32:03;50.40;;;4.97;;
11092;SDS011;5600;50.864;6.102;2023-02-01T05:35:04;56.53;;;5.23;;
11092;SDS011;5600;50.864;6.102;2023-02-01T05:38:05;49.23;;;5.37;;
11092;SDS011;5600;50.864;6.102;2023-02-01T05:41:06;74.00;;;6.00;;
11092;SDS011;5600;50.864;6.102;2023-02-01T05:44:07;70.77;;;6.27;;
11092;SDS011;5600;50.864;6.102;2023-02-01T05:47:08;79.40;;;6.67;;
11092;SDS011;5600;50.864;6.102;2023-02-01T05:50:10;75.37;;;5.87;;
11092;SDS011;5600;50.864;6.102;2023-02-01T05:53:11;63.33;;;5.70;;
11092;SDS011;5600;50.864;6.102;2023-02-01T05:56:12;69.43;;;6.07;;
11092;SDS011;5600;50.864;6.102;2023-02-01T05:59:13;82.40;;;6.27;;
11092;SDS011;5600;50.864;6.102;2023-02-01T06:02:15;95.20;;;7.40;;
11092;SDS011;5600;50.864;6.102;2023-02-01T06:05:16;82.10;;;6.27;;
11092;SDS011;5600;50.864;6.102;2023-02-01T06:08:17;81.47;;;6.57;;
11092;SDS011;5600;50.864;6.102;2023-02-01T06:11:18;77.70;;;5.90;;
11092;SDS011;5600;50.864;6.102;2023-02-01T06:14:19;79.53;;;6.40;;
11092;SDS011;5600;50.864;6.102;2023-02-01T06:17:20;86.07;;;6.77;;
11092;SDS011;5600;50.864;6.102;2023-02-01T06:20:21;88.13;;;6.97;;
11092;SDS011;5600;50.864;6.102;2023-02-01T06:23:22;115.03;;;8.10;;
11092;SDS011;5600;50.864;6.102;2023-02-01T06:26:24;79.10;;;6.50;;
11092;SDS011;5600;50.864;6.102;2023-02-01T06:29:25;111.03;;;8.00;;
11092;SDS011;5600;50.864;6.102;2023-02-01T06:32:26;97.63;;;8.27;;
11092;SDS011;5600;50.864;6.102;2023-02-01T06:35:27;85.10;;;6.63;;
11092;SDS011;5600;50.864;6.102;2023-02-01T06:38:29;111.87;;;7.67;;
11092;SDS011;5600;50.864;6.102;2023-02-01T06:41:30;76.97;;;6.40;;
11092;SDS011;5600;50.864;6.102;2023-02-01T06:44:34;130.53;;;8.83;;
11092;SDS011;5600;50.864;6.102;2023-02-01T06:47:35;71.00;;;6.23;;
11092;SDS011;5600;50.864;6.102;2023-02-01T06:50:36;133.80;;;9.03;;
11092;SDS011;5600;50.864;6.102;2023-02-01T06:53:37;77.70;;;6.33;;
11092;SDS011;5600;50.864;6.102;2023-02-01T06:56:38;70.33;;;6.17;;
11092;SDS011;5600;50.864;6.102;2023-02-01T06:59:39;70.10;;;5.63;;
11092;SDS011;5600;50.864;6.102;2023-02-01T07:02:40;73.80;;;6.23;;
11092;SDS011;5600;50.864;6.102;2023-02-01T07:05:41;76.20;;;6.50;;
11092;SDS011;5600;50.864;6.102;2023-02-01T07:08:42;86.63;;;6.73;;
11092;SDS011;5600;50.864;6.102;2023-02-01T07:11:44;62.83;;;5.27;;
11092;SDS011;5600;50.864;6.102;2023-02-01T07:14:45;83.27;;;6.93;;
11092;SDS011;5600;50.864;6.102;2023-02-01T07:17:46;61.90;;;5.47;;
11092;SDS011;5600;50.864;6.102;2023-02-01T07:20:49;56.20;;;5.10;;
11092;SDS011;5600;50.864;6.102;2023-02-01T07:23:51;72.83;;;5.80;;
11092;SDS011;5600;50.864;6.102;2023-02-01T07:26:52;75.70;;;5.97;;
11092;SDS011;5600;50.864;6.102;2023-02-01T07:29:53;52.47;;;5.13;;
11092;SDS011;5600;50.864;6.102;2023-02-01T07:32:55;90.40;;;6.43;;
11092;SDS011;5600;50.864;6.102;2023-02-01T07:36:02;78.03;;;6.80;;
11092;SDS011;5600;50.864;6.102;2023-02-01T07:39:04;71.80;;;5.93;;
11092;SDS011;5600;50.864;6.102;2023-02-01T07:42:05;76.30;;;5.93;;
11092;SDS011;5600;50.864;6.102;2023-02-01T07:45:07;67.33;;;5.60;;
11092;SDS011;5600;50.864;6.102;2023-02-01T07:48:08;75.67;;;6.67;;
11092;SDS011;5600;50.864;6.102;2023-02-01T07:51:10;65.40;;;5.77;;
11092;SDS011;5600;50.864;6.102;2023-02-01T07:54:12;89.57;;;6.60;;
11092;SDS011;5600;50.864;6.102;2023-02-01T07:57:13;58.10;;;4.93;;
11092;SDS011;5600;50.864;6.102;2023-02-01T08:00:15;65.83;;;5.77;;
11092;SDS011;5600;50.864;6.102;2023-02-01T08:03:34;71.40;;;6.13;;
11092;SDS011;5600;50.864;6.102;2023-02-01T08:06:36;60.37;;;5.53;;
11092;SDS011;5600;50.864;6.102;2023-02-01T08:09:36;58.90;;;5.17;;
11092;SDS011;5600;50.864;6.102;2023-02-01T08:12:38;55.33;;;5.27;;
11092;SDS011;5600;50.864;6.102;2023-02-01T08:15:39;62.80;;;5.63;;
11092;SDS011;5600;50.864;6.102;2023-02-01T08:18:40;55.87;;;5.47;;
11092;SDS011;5600;50.864;6.102;2023-02-01T08:21:41;80.40;;;5.93;;
11092;SDS011;5600;50.864;6.102;2023-02-01T08:24:42;82.27;;;6.20;;
11092;SDS011;5600;50.864;6.102;2023-02-01T08:27:44;96.27;;;7.63;;
11092;SDS011;5600;50.864;6.102;2023-02-01T08:30:45;63.90;;;5.80;;
11092;SDS011;5600;50.864;6.102;2023-02-01T08:33:51;92.10;;;7.00;;
11092;SDS011;5600;50.864;6.102;2023-02-01T08:36:54;55.30;;;5.40;;
11092;SDS011;5600;50.864;6.102;2023-02-01T08:39:58;100.07;;;7.23;;
11092;SDS011;5600;50.864;6.102;2023-02-01T08:42:59;41.93;;;4.37;;
11092;SDS011;5600;50.864;6.102;2023-02-01T08:46:01;73.27;;;6.23;;
11092;SDS011;5600;50.864;6.102;2023-02-01T08:49:02;97.83;;;6.77;;
11092;SDS011;5600;50.864;6.102;2023-02-01T08:52:04;57.13;;;5.10;;
11092;SDS011;5600;50.864;6.102;2023-02-01T08:55:05;67.87;;;5.83;;
11092;SDS011;5600;50.864;6.102;2023-02-01T08:58:06;58.47;;;5.60;;
11092;SDS011;5600;50.864;6.102;2023-02-01T09:01:11;54.00;;;5.27;;
11092;SDS011;5600;50.864;6.102;2023-02-01T09:04:14;72.87;;;6.03;;
11092;SDS011;5600;50.864;6.102;2023-02-01T09:07:15;73.70;;;6.23;;
11092;SDS011;5600;50.864;6.102;2023-02-01T09:10:17;118.10;;;7.90;;
11092;SDS011;5600;50.864;6.102;2023-02-01T09:13:18;64.53;;;5.60;;
11092;SDS011;5600;50.864;6.102;2023-02-01T09:16:20;83.27;;;6.63;;
11092;SDS011;5600;50.864;6.102;2023-02-01T09:19:20;64.20;;;5.53;;
11092;SDS011;5600;50.864;6.102;2023-02-01T09:22:21;59.63;;;5.20;;
11092;SDS011;5600;50.864;6.102;2023-02-01T09:25:22;87.83;;;6.47;;
11092;SDS011;5600;50.864;6.102;2023-02-01T09:28:24;62.03;;;5.57;;
11092;SDS011;5600;50.864;6.102;2023-02-01T09:31:25;52.17;;;4.97;;
11092;SDS011;5600;50.864;6.102;2023-02-01T09:34:25;56.13;;;5.07;;
11092;SDS011;5600;50.864;6.102;2023-02-01T09:37:26;77.60;;;6.30;;
11092;SDS011;5600;50.864;6.102;2023-02-01T09:40:27;83.23;;;6.60;;
11092;SDS011;5600;50.864;6.102;2023-02-01T09:43:30;72.20;;;5.87;;
11092;SDS011;5600;50.864;6.102;2023-02-01T09:46:57;53.80;;;4.83;;
11092;SDS011;5600;50.864;6.102;2023-02-01T09:50:01;74.33;;;6.17;;
11092;SDS011;5600;50.864;6.102;2023-02-01T09:53:29;89.60;;;7.47;;
11092;SDS011;5600;50.864;6.102;2023-02-01T09:56:48;71.83;;;5.53;;
11092;SDS011;5600;50.864;6.102;2023-02-01T09:59:54;80.77;;;6.27;;
11092;SDS011;5600;50.864;6.102;2023-02-01T10:03:12;53.67;;;5.23;;
11092;SDS011;5600;50.864;6.102;2023-02-01T10:06:30;63.23;;;5.40;;
11092;SDS011;5600;50.864;6.102;2023-02-01T10:09:50;61.53;;;5.77;;
11092;SDS011;5600;50.864;6.102;2023-02-01T10:13:21;94.30;;;7.03;;
11092;SDS011;5600;50.864;6.102;2023-02-01T10:16:36;70.53;;;5.90;;
11092;SDS011;5600;50.864;6.102;2023-02-01T10:26:21;76.07;;;6.67;;
11092;SDS011;5600;50.864;6.102;2023-02-01T10:29:24;82.83;;;6.30;;
11092;SDS011;5600;50.864;6.102;2023-02-01T10:32:32;71.63;;;6.20;;
11092;SDS011;5600;50.864;6.102;2023-02-01T10:35:34;97.60;;;7.43;;
11092;SDS011;5600;50.864;6.102;2023-02-01T10:38:38;64.63;;;5.40;;
11092;SDS011;5600;50.864;6.102;2023-02-01T10:41:39;63.87;;;5.33;;
11092;SDS011;5600;50.864;6.102;2023-02-01T10:44:43;88.83;;;6.70;;
11092;SDS011;5600;50.864;6.102;2023-02-01T10:47:48;53.00;;;5.20;;
11092;SDS011;5600;50.864;6.102;2023-02-01T10:50:53;67.00;;;5.70;;
11092;SDS011;5600;50.864;6.102;2023-02-01T10:54:03;60.57;;;5.20;;
11092;SDS011;5600;50.864;6.102;2023-02-01T10:57:25;51.60;;;5.07;;
11092;SDS011;5600;50.864;6.102;2023-02-01T11:00:28;91.33;;;6.97;;
11092;SDS011;5600;50.864;6.102;2023-02-01T11:03:39;75.20;;;6.07;;
11092;SDS011;5600;50.864;6.102;2023-02-01T11:06:43;83.80;;;6.30;;
11092;SDS011;5600;50.864;6.102;2023-02-01T11:09:53;85.67;;;7.03;;
11092;SDS011;5600;50.864;6.102;2023-02-01T11:12:55;92.97;;;6.80;;
11092;SDS011;5600;50.864;6.102;2023-02-01T11:15:57;60.80;;;5.20;;
11092;SDS011;5600;50.864;6.102;2023-02-01T11:19:01;76.60;;;6.50;;
11092;SDS011;5600;50.864;6.102;2023-02-01T11:22:03;94.00;;;7.17;;
11092;SDS011;5600;50.864;6.102;2023-02-01T11:25:07;102.67;;;7.23;;
11092;SDS011;5600;50.864;6.102;2023-02-01T11:28:10;61.77;;;5.30;;
11092;SDS011;5600;50.864;6.102;2023-02-01T11:31:12;76.13;;;5.90;;
11092;SDS011;5600;50.864;6.102;2023-02-01T11:34:15;79.47;;;6.13;;
11092;SDS011;5600;50.864;6.102;2023-02-01T11:37:19;70.83;;;5.83;;
11092;SDS011;5600;50.864;6.102;2023-02-01T11:40:36;95.57;;;6.40;;
11092;SDS011;5600;50.864;6.102;2023-02-01T11:43:42;59.00;;;5.20;;
11092;SDS011;5600;50.864;6.102;2023-02-01T12:00:28;96.77;;;7.13;;
11092;SDS011;5600;50.864;6.102;2023-02-01T12:06:54;84.17;;;6.43;;
11092;SDS011;5600;50.864;6.102;2023-02-01T12:10:03;99.30;;;6.80;;
11092;SDS011;5600;50.864;6.102;2023-02-01T12:22:36;122.97;;;7.80;;
11092;SDS011;5600;50.864;6.102;2023-02-01T12:42:24;79.13;;;6.93;;
11092;SDS011;5600;50.864;6.102;2023-02-01T12:48:57;71.30;;;5.63;;
11092;SDS011;5600;50.864;6.102;2023-02-01T12:52:02;63.30;;;5.67;;
11092;SDS011;5600;50.864;6.102;2023-02-01T12:58:27;70.33;;;6.00;;
11092;SDS011;5600;50.864;6.102;2023-02-01T13:01:45;46.57;;;4.47;;
11092;SDS011;5600;50.864;6.102;2023-02-01T13:04:55;67.57;;;4.97;;
11092;SDS011;5600;50.864;6.102;2023-02-01T13:08:02;52.67;;;4.80;;
11092;SDS011;5600;50.864;6.102;2023-02-01T13:11:13;65.53;;;5.23;;
11092;SDS011;5600;50.864;6.102;2023-02-01T13:17:35;98.83;;;6.70;;
11092;SDS011;5600;50.864;6.102;2023-02-01T13:20:39;118.20;;;7.97;;
11092;SDS011;5600;50.864;6.102;2023-02-01T13:23:47;53.37;;;4.47;;
11092;SDS011;5600;50.864;6.102;2023-02-01T13:26:49;81.07;;;5.57;;
11092;SDS011;5600;50.864;6.102;2023-02-01T13:29:52;117.83;;;7.73;;
11092;SDS011;5600;50.864;6.102;2023-02-01T13:33:07;113.67;;;7.50;;
11092;SDS011;5600;50.864;6.102;2023-02-01T13:36:28;128.00;;;8.17;;
11092;SDS011;5600;50.864;6.102;2023-02-01T13:39:40;81.83;;;5.77;;
11092;SDS011;5600;50.864;6.102;2023-02-01T13:42:56;70.90;;;5.37;;
11092;SDS011;5600;50.864;6.102;2023-02-01T13:46:04;74.47;;;5.50;;
11092;SDS011;5600;50.864;6.102;2023-02-01T13:49:06;85.60;;;6.27;;
11092;SDS011;5600;50.864;6.102;2023-02-01T13:52:27;101.30;;;6.83;;
11092;SDS011;5600;50.864;6.102;2023-02-01T13:55:45;57.43;;;4.57;;
11092;SDS011;5600;50.864;6.102;2023-02-01T13:58:54;77.03;;;5.63;;
11092;SDS011;5600;50.864;6.102;2023-02-01T14:01:55;72.80;;;5.23;;
11092;SDS011;5600;50.864;6.102;2023-02-01T14:08:40;104.10;;;6.80;;
11092;SDS011;5600;50.864;6.102;2023-02-01T14:14:51;84.50;;;6.07;;
11092;SDS011;5600;50.864;6.102;2023-02-01T14:21:45;62.07;;;4.77;;
11092;SDS011;5600;50.864;6.102;2023-02-01T14:24:49;68.50;;;5.07;;
11092;SDS011;5600;50.864;6.102;2023-02-01T14:27:54;92.20;;;6.40;;
11092;SDS011;5600;50.864;6.102;2023-02-01T14:30:56;112.93;;;6.87;;
11092;SDS011;5600;50.864;6.102;2023-02-01T14:33:59;64.10;;;4.97;;
11092;SDS011;5600;50.864;6.102;2023-02-01T14:37:05;78.73;;;5.50;;
11092;SDS011;5600;50.864;6.102;2023-02-01T14:40:29;64.63;;;4.80;;
11092;SDS011;5600;50.864;6.102;2023-02-01T14:50:18;68.27;;;4.83;;
11092;SDS011;5600;50.864;6.102;2023-02-01T14:53:20;62.80;;;5.00;;
11092;SDS011;5600;50.864;6.102;2023-02-01T14:56:27;89.63;;;5.83;;
11092;SDS011;5600;50.864;6.102;2023-02-01T14:59:28;46.37;;;3.97;;
11092;SDS011;5600;50.864;6.102;2023-02-01T15:02:33;70.50;;;4.70;;
11092;SDS011;5600;50.864;6.102;2023-02-01T15:05:36;96.47;;;6.80;;
11092;SDS011;5600;50.864;6.102;2023-02-01T15:08:37;78.77;;;5.50;;
11092;SDS011;5600;50.864;6.102;2023-02-01T15:11:59;69.80;;;5.07;;
11092;SDS011;5600;50.864;6.102;2023-02-01T15:15:14;77.47;;;5.40;;
11092;SDS011;5600;50.864;6.102;2023-02-01T15:18:17;68.27;;;5.17;;
11092;SDS011;5600;50.864;6.102;2023-02-01T15:21:20;66.47;;;4.87;;
11092;SDS011;5600;50.864;6.102;2023-02-01T15:24:29;45.53;;;3.90;;
11092;SDS011;5600;50.864;6.102;2023-02-01T15:27:36;104.87;;;6.97;;
11092;SDS011;5600;50.864;6.102;2023-02-01T15:30:37;91.93;;;6.97;;
11092;SDS011;5600;50.864;6.102;2023-02-01T15:33:39;86.10;;;5.80;;
11092;SDS011;5600;50.864;6.102;2023-02-01T15:36:40;93.93;;;6.10;;
11092;SDS011;5600;50.864;6.102;2023-02-01T15:40:02;103.77;;;6.50;;
11092;SDS011;5600;50.864;6.102;2023-02-01T15:43:11;82.40;;;6.17;;
11092;SDS011;5600;50.864;6.102;2023-02-01T15:46:14;70.40;;;5.27;;
11092;SDS011;5600;50.864;6.102;2023-02-01T15:49:23;63.80;;;5.07;;
11092;SDS011;5600;50.864;6.102;2023-02-01T15:55:40;73.90;;;5.80;;
11092;SDS011;5600;50.864;6.102;2023-02-01T15:58:42;139.17;;;8.90;;
11092;SDS011;5600;50.864;6.102;2023-02-01T16:01:48;122.03;;;8.00;;
11092;SDS011;5600;50.864;6.102;2023-02-01T16:04:51;82.17;;;6.47;;
11092;SDS011;5600;50.864;6.102;2023-02-01T16:07:58;68.77;;;5.93;;
11092;SDS011;5600;50.864;6.102;2023-02-01T16:14:19;87.03;;;6.40;;
11092;SDS011;5600;50.864;6.102;2023-02-01T16:17:21;85.40;;;6.30;;
11092;SDS011;5600;50.864;6.102;2023-02-01T16:20:22;85.67;;;6.20;;
11092;SDS011;5600;50.864;6.102;2023-02-01T16:23:22;94.50;;;6.57;;
11092;SDS011;5600;50.864;6.102;2023-02-01T16:26:23;82.13;;;6.13;;
11092;SDS011;5600;50.864;6.102;2023-02-01T16:29:24;70.37;;;5.53;;
11092;SDS011;5600;50.864;6.102;2023-02-01T16:32:24;77.73;;;6.00;;
11092;SDS011;5600;50.864;6.102;2023-02-01T16:35:27;75.60;;;6.10;;
11092;SDS011;5600;50.864;6.102;2023-02-01T16:38:32;75.30;;;5.73;;
11092;SDS011;5600;50.864;6.102;2023-02-01T16:41:33;65.17;;;5.07;;
11092;SDS011;5600;50.864;6.102;2023-02-01T16:44:34;70.37;;;6.10;;
11092;SDS011;5600;50.864;6.102;2023-02-01T16:47:36;94.17;;;6.50;;
11092;SDS011;5600;50.864;6.102;2023-02-01T16:50:38;106.00;;;7.53;;
11092;SDS011;5600;50.864;6.102;2023-02-01T16:53:40;45.87;;;4.63;;
11092;SDS011;5600;50.864;6.102;2023-02-01T16:56:40;45.33;;;4.50;;
11092;SDS011;5600;50.864;6.102;2023-02-01T16:59:42;73.97;;;5.63;;
11092;SDS011;5600;50.864;6.102;2023-02-01T17:02:44;83.93;;;6.43;;
11092;SDS011;5600;50.864;6.102;2023-02-01T17:05:46;68.90;;;5.43;;
11092;SDS011;5600;50.864;6.102;2023-02-01T17:08:56;102.43;;;7.67;;
11092;SDS011;5600;50.864;6.102;2023-02-01T17:11:58;65.10;;;5.27;;
11092;SDS011;5600;50.864;6.102;2023-02-01T17:14:58;85.53;;;6.47;;
11092;SDS011;5600;50.864;6.102;2023-02-01T17:18:00;77.00;;;6.27;;
11092;SDS011;5600;50.864;6.102;2023-02-01T17:21:02;64.43;;;5.23;;
11092;SDS011;5600;50.864;6.102;2023-02-01T17:24:04;47.43;;;4.73;;
11092;SDS011;5600;50.864;6.102;2023-02-01T17:27:05;64.27;;;5.30;;
11092;SDS011;5600;50.864;6.102;2023-02-01T17:30:06;79.40;;;5.87;;
11092;SDS011;5600;50.864;6.102;2023-02-01T17:36:40;58.63;;;5.33;;
11092;SDS011;5600;50.864;6.102;2023-02-01T17:39:41;98.70;;;8.27;;
11092;SDS011;5600;50.864;6.102;2023-02-01T17:42:54;80.33;;;6.80;;
11092;SDS011;5600;50.864;6.102;2023-02-01T17:46:04;65.80;;;5.70;;
11092;SDS011;5600;50.864;6.102;2023-02-01T17:49:11;56.37;;;5.07;;
11092;SDS011;5600;50.864;6.102;2023-02-01T17:52:14;58.53;;;5.10;;
11092;SDS011;5600;50.864;6.102;2023-02-01T17:55:18;74.40;;;6.27;;
11092;SDS011;5600;50.864;6.102;2023-02-01T17:58:21;87.93;;;7.27;;
11092;SDS011;5600;50.864;6.102;2023-02-01T18:01:23;59.43;;;5.43;;
11092;SDS011;5600;50.864;6.102;2023-02-01T18:04:23;53.67;;;5.00;;
11092;SDS011;5600;50.864;6.102;2023-02-01T18:07:25;55.60;;;6.10;;
11092;SDS011;5600;50.864;6.102;2023-02-01T18:10:26;73.07;;;5.87;;
11092;SDS011;5600;50.864;6.102;2023-02-01T18:13:27;79.67;;;6.53;;
11092;SDS011;5600;50.864;6.102;2023-02-01T18:16:32;85.13;;;6.90;;
11092;SDS011;5600;50.864;6.102;2023-02-01T18:19:33;64.67;;;6.33;;
11092;SDS011;5600;50.864;6.102;2023-02-01T18:22:34;50.40;;;5.13;;
11092;SDS011;5600;50.864;6.102;2023-02-01T18:25:34;66.43;;;6.07;;
11092;SDS011;5600;50.864;6.102;2023-02-01T18:28:37;59.03;;;5.80;;
11092;SDS011;5600;50.864;6.102;2023-02-01T18:31:45;112.03;;;8.10;;
11092;SDS011;5600;50.864;6.102;2023-02-01T18:34:48;67.87;;;5.97;;
11092;SDS011;5600;50.864;6.102;2023-02-01T18:37:50;89.13;;;6.70;;
11092;SDS011;5600;50.864;6.102;2023-02-01T18:40:54;64.10;;;5.37;;
11092;SDS011;5600;50.864;6.102;2023-02-01T18:43:57;78.37;;;6.30;;
11092;SDS011;5600;50.864;6.102;2023-02-01T18:46:58;57.30;;;5.50;;
11092;SDS011;5600;50.864;6.102;2023-02-01T18:49:59;69.23;;;5.83;;
11092;SDS011;5600;50.864;6.102;2023-02-01T18:53:02;50.73;;;4.83;;
11092;SDS011;5600;50.864;6.102;2023-02-01T18:56:04;50.17;;;4.67;;
11092;SDS011;5600;50.864;6.102;2023-02-01T18:59:05;57.53;;;5.30;;
11092;SDS011;5600;50.864;6.102;2023-02-01T19:02:07;56.43;;;5.23;;
11092;SDS011;5600;50.864;6.102;2023-02-01T19:05:11;47.23;;;5.10;;
11092;SDS011;5600;50.864;6.102;2023-02-01T19:08:12;49.27;;;4.73;;
11092;SDS011;5600;50.864;6.102;2023-02-01T19:11:13;59.63;;;5.27;;
11092;SDS011;5600;50.864;6.102;2023-02-01T19:14:14;84.77;;;6.67;;
11092;SDS011;5600;50.864;6.102;2023-02-01T19:17:15;67.13;;;5.57;;
11092;SDS011;5600;50.864;6.102;2023-02-01T19:20:17;71.37;;;5.57;;
11092;SDS011;5600;50.864;6.102;2023-02-01T19:23:19;59.93;;;5.37;;
11092;SDS011;5600;50.864;6.102;2023-02-01T19:26:20;49.77;;;4.77;;
11092;SDS011;5600;50.864;6.102;2023-02-01T19:29:22;53.83;;;5.17;;
11092;SDS011;5600;50.864;6.102;2023-02-01T19:32:23;73.03;;;5.93;;
11092;SDS011;5600;50.864;6.102;2023-02-01T19:35:24;41.40;;;4.17;;
11092;SDS011;5600;50.864;6.102;2023-02-01T19:38:24;62.73;;;5.40;;
11092;SDS011;5600;50.864;6.102;2023-02-01T19:41:25;59.57;;;5.67;;
11092;SDS011;5600;50.864;6.102;2023-02-01T19:44:27;58.37;;;5.20;;
11092;SDS011;5600;50.864;6.102;2023-02-01T19:47:27;47.77;;;5.00;;
11092;SDS011;5600;50.864;6.102;2023-02-01T19:50:28;75.07;;;6.20;;
11092;SDS011;5600;50.864;6.102;2023-02-01T19:53:29;68.00;;;7.23;;
11092;SDS011;5600;50.864;6.102;2023-02-01T19:56:30;52.93;;;6.37;;
11092;SDS011;5600;50.864;6.102;2023-02-01T19:59:30;70.00;;;6.60;;
11092;SDS011;5600;50.864;6.102;2023-02-01T20:02:31;61.17;;;6.60;;
11092;SDS011;5600;50.864;6.102;2023-02-01T20:05:32;50.90;;;6.93;;
11092;SDS011;5600;50.864;6.102;2023-02-01T20:08:33;65.67;;;6.33;;
11092;SDS011;5600;50.864;6.102;2023-02-01T20:11:33;69.43;;;6.07;;
11092;SDS011;5600;50.864;6.102;2023-02-01T20:14:34;57.90;;;5.83;;
11092;SDS011;5600;50.864;6.102;2023-02-01T20:17:35;60.30;;;6.03;;
11092;SDS011;5600;50.864;6.102;2023-02-01T20:20:36;82.17;;;11.00;;
11092;SDS011;5600;50.864;6.102;2023-02-01T20:23:37;64.20;;;5.70;;
11092;SDS011;5600;50.864;6.102;2023-02-01T20:26:38;62.83;;;6.13;;